THY79 LTFM-EBBR
Flight info
| Callsign | THY79 |
|---|---|
| Flight time | N/A |
| Altitude | 38000 |
| Route | TUDBU1D/35L TUDBU Q26 ETUBA DCT NAVOD DCT GOVIN DCT MAVIR DCT GITAS DCT ARSIN DCT DEXIT DCT MOOCE DCT TEKTU DCT TESGA DCT UMUPU T880 BATTY |
| Aircraft | A20N/M-SDE2E3FGHIRWXY/LB1 |
Departure
| Time | 2026-05-07 14:38 |
|---|---|
| Airport | İstanbul Airport (LTFM) |
Arrival
| Time | N/A |
|---|---|
| Airport | Brussels Airport (EBBR) |
| Time | Latitude | Longitude | Altitude | Speed | Heading |
|---|---|---|---|---|---|
| 2026-05-07 13:56 | 41.26485 | 28.73554 | 313 ft | 0 kts | 71° |
| 2026-05-07 14:25 | 41.26485 | 28.73552 | 312 ft | 2 kts | 71° |
| 2026-05-07 14:26 | 41.26477 | 28.73519 | 313 ft | 4 kts | 71° |
| 2026-05-07 14:26 | 41.26469 | 28.73485 | 311 ft | 4 kts | 74° |
| 2026-05-07 14:26 | 41.26463 | 28.73451 | 313 ft | 4 kts | 86° |
| 2026-05-07 14:26 | 41.26465 | 28.73417 | 313 ft | 4 kts | 129° |
| 2026-05-07 14:27 | 41.26474 | 28.73407 | 312 ft | 1 kts | 160° |
| 2026-05-07 14:32 | 41.26472 | 28.73408 | 312 ft | 2 kts | 160° |
| 2026-05-07 14:32 | 41.26433 | 28.73424 | 313 ft | 9 kts | 161° |
| 2026-05-07 14:32 | 41.26412 | 28.73434 | 313 ft | 3 kts | 161° |
| 2026-05-07 14:33 | 41.26355 | 28.73460 | 313 ft | 13 kts | 161° |
| 2026-05-07 14:33 | 41.26273 | 28.73495 | 313 ft | 12 kts | 169° |
| 2026-05-07 14:33 | 41.26224 | 28.73435 | 313 ft | 9 kts | 271° |
| 2026-05-07 14:33 | 41.26221 | 28.73318 | 313 ft | 16 kts | 269° |
| 2026-05-07 14:34 | 41.26219 | 28.73200 | 312 ft | 12 kts | 269° |
| 2026-05-07 14:34 | 41.26218 | 28.73108 | 312 ft | 4 kts | 269° |
| 2026-05-07 14:34 | 41.26217 | 28.73034 | 312 ft | 9 kts | 270° |
| 2026-05-07 14:34 | 41.26216 | 28.72960 | 312 ft | 0 kts | 269° |
| 2026-05-07 14:35 | 41.26216 | 28.72957 | 312 ft | 3 kts | 269° |
| 2026-05-07 14:36 | 41.26216 | 28.72888 | 313 ft | 12 kts | 269° |
| 2026-05-07 14:36 | 41.26214 | 28.72754 | 314 ft | 18 kts | 269° |
| 2026-05-07 14:36 | 41.26213 | 28.72587 | 313 ft | 9 kts | 268° |
| 2026-05-07 14:36 | 41.26216 | 28.72531 | 314 ft | 2 kts | 308° |
| 2026-05-07 14:37 | 41.26247 | 28.72526 | 314 ft | 0 kts | 358° |
| 2026-05-07 14:37 | 41.26291 | 28.72524 | 313 ft | 36 kts | 359° |
| 2026-05-07 14:37 | 41.26882 | 28.72514 | 306 ft | 128 kts | 358° |
| 2026-05-07 14:38 | 41.28001 | 28.72482 | 498 ft | 181 kts | 1° |
| 2026-05-07 14:38 | 41.29256 | 28.72475 | 1684 ft | 187 kts | 359° |
| 2026-05-07 14:38 | 41.30581 | 28.72462 | 2796 ft | 194 kts | 356° |
| 2026-05-07 14:38 | 41.32000 | 28.72405 | 3575 ft | 215 kts | 354° |
| 2026-05-07 14:39 | 41.33592 | 28.72289 | 4409 ft | 243 kts | 353° |
| 2026-05-07 14:39 | 41.35360 | 28.72090 | 5304 ft | 262 kts | 352° |
| 2026-05-07 14:39 | 41.37190 | 28.71826 | 6239 ft | 267 kts | 350° |
| 2026-05-07 14:39 | 41.38933 | 28.71045 | 7140 ft | 266 kts | 325° |
| 2026-05-07 14:40 | 41.40223 | 28.69378 | 8334 ft | 268 kts | 307° |
| 2026-05-07 14:40 | 41.41294 | 28.67337 | 9896 ft | 272 kts | 304° |
| 2026-05-07 14:40 | 41.42397 | 28.65190 | 10960 ft | 293 kts | 305° |
| 2026-05-07 14:40 | 41.43648 | 28.62942 | 11718 ft | 318 kts | 308° |
| 2026-05-07 14:41 | 41.45077 | 28.60554 | 12577 ft | 337 kts | 309° |
| 2026-05-07 14:41 | 41.46589 | 28.58126 | 13795 ft | 344 kts | 310° |
| 2026-05-07 14:41 | 41.48143 | 28.55664 | 14940 ft | 349 kts | 310° |
| 2026-05-07 14:41 | 41.49723 | 28.53168 | 16076 ft | 354 kts | 310° |
| 2026-05-07 14:42 | 41.51319 | 28.50642 | 17139 ft | 359 kts | 310° |
| 2026-05-07 14:42 | 41.52943 | 28.48068 | 18056 ft | 364 kts | 310° |
| 2026-05-07 14:42 | 41.54584 | 28.45459 | 18899 ft | 369 kts | 310° |
| 2026-05-07 14:42 | 41.56236 | 28.42830 | 19798 ft | 370 kts | 310° |
| 2026-05-07 14:43 | 41.57897 | 28.40181 | 20654 ft | 373 kts | 310° |
| 2026-05-07 14:43 | 41.59568 | 28.37516 | 21501 ft | 376 kts | 310° |
| 2026-05-07 14:43 | 41.61254 | 28.34822 | 22337 ft | 379 kts | 310° |
| 2026-05-07 14:43 | 41.62949 | 28.32114 | 23160 ft | 382 kts | 310° |
| 2026-05-07 14:44 | 41.64644 | 28.29401 | 23916 ft | 385 kts | 310° |
| 2026-05-07 14:44 | 41.66367 | 28.26644 | 24590 ft | 388 kts | 310° |
| 2026-05-07 14:44 | 41.68073 | 28.23911 | 25234 ft | 391 kts | 310° |
| 2026-05-07 14:44 | 41.69815 | 28.21120 | 25868 ft | 394 kts | 310° |
| 2026-05-07 14:45 | 41.71578 | 28.18293 | 26493 ft | 397 kts | 310° |
| 2026-05-07 14:45 | 41.73353 | 28.15443 | 27110 ft | 400 kts | 310° |
| 2026-05-07 14:45 | 41.75144 | 28.12563 | 27695 ft | 403 kts | 310° |
| 2026-05-07 14:45 | 41.76944 | 28.09665 | 28265 ft | 406 kts | 310° |
| 2026-05-07 14:46 | 41.78759 | 28.06739 | 28810 ft | 409 kts | 310° |
| 2026-05-07 14:46 | 41.80590 | 28.03784 | 29338 ft | 412 kts | 310° |
| 2026-05-07 14:46 | 41.82424 | 28.00821 | 29827 ft | 415 kts | 309° |
| 2026-05-07 14:46 | 41.84278 | 27.97822 | 30320 ft | 418 kts | 309° |
| 2026-05-07 14:47 | 41.86136 | 27.94814 | 30765 ft | 421 kts | 309° |
| 2026-05-07 14:47 | 41.88010 | 27.91777 | 31224 ft | 423 kts | 309° |
| 2026-05-07 14:47 | 41.89887 | 27.88732 | 31773 ft | 423 kts | 309° |
| 2026-05-07 14:47 | 41.91755 | 27.85700 | 32379 ft | 421 kts | 309° |
| 2026-05-07 14:48 | 41.93618 | 27.82672 | 32979 ft | 419 kts | 309° |
| 2026-05-07 14:48 | 41.95472 | 27.79656 | 33611 ft | 417 kts | 309° |
| 2026-05-07 14:48 | 41.97348 | 27.76756 | 34189 ft | 415 kts | 313° |
| 2026-05-07 14:48 | 41.99374 | 27.73999 | 34685 ft | 414 kts | 313° |
| 2026-05-07 14:49 | 42.01391 | 27.71253 | 35127 ft | 413 kts | 313° |
| 2026-05-07 14:49 | 42.03410 | 27.68496 | 35561 ft | 413 kts | 313° |
| 2026-05-07 14:49 | 42.05423 | 27.65742 | 35985 ft | 412 kts | 313° |
| 2026-05-07 14:49 | 42.07432 | 27.62989 | 36393 ft | 412 kts | 313° |
| 2026-05-07 14:50 | 42.09442 | 27.60231 | 36798 ft | 412 kts | 313° |
| 2026-05-07 14:50 | 42.11447 | 27.57477 | 37192 ft | 411 kts | 313° |
| 2026-05-07 14:50 | 42.13449 | 27.54725 | 37570 ft | 411 kts | 313° |
| 2026-05-07 14:50 | 42.15451 | 27.51970 | 37949 ft | 411 kts | 313° |
| 2026-05-07 14:51 | 42.17452 | 27.49214 | 38078 ft | 410 kts | 312° |
| 2026-05-07 14:51 | 42.19443 | 27.46468 | 38089 ft | 409 kts | 312° |
| 2026-05-07 14:51 | 42.23425 | 27.40969 | 38092 ft | 409 kts | 312° |
| 2026-05-07 14:52 | 42.27379 | 27.35498 | 38088 ft | 410 kts | 312° |
| 2026-05-07 14:52 | 42.31360 | 27.29981 | 38087 ft | 410 kts | 312° |
| 2026-05-07 14:53 | 42.35342 | 27.24451 | 38093 ft | 411 kts | 312° |
| 2026-05-07 14:53 | 42.39333 | 27.18897 | 38096 ft | 412 kts | 312° |
| 2026-05-07 14:54 | 42.43334 | 27.13319 | 38099 ft | 413 kts | 312° |
| 2026-05-07 14:54 | 42.47335 | 27.07731 | 38093 ft | 413 kts | 312° |
| 2026-05-07 14:55 | 42.51338 | 27.02129 | 38092 ft | 414 kts | 311° |
| 2026-05-07 14:55 | 42.55318 | 26.96546 | 38093 ft | 414 kts | 311° |
| 2026-05-07 14:56 | 42.59326 | 26.90914 | 38086 ft | 415 kts | 311° |
| 2026-05-07 14:56 | 42.63334 | 26.85272 | 38091 ft | 416 kts | 311° |
| 2026-05-07 14:57 | 42.67352 | 26.79602 | 38087 ft | 416 kts | 311° |
| 2026-05-07 14:57 | 42.71367 | 26.73927 | 38079 ft | 416 kts | 311° |
| 2026-05-07 14:58 | 42.75379 | 26.68245 | 38076 ft | 417 kts | 311° |
| 2026-05-07 14:58 | 42.79390 | 26.62546 | 38073 ft | 416 kts | 310° |
| 2026-05-07 14:59 | 42.82978 | 26.56403 | 38059 ft | 414 kts | 302° |
| 2026-05-07 14:59 | 42.86103 | 26.49824 | 38056 ft | 414 kts | 301° |
| 2026-05-07 15:00 | 42.89249 | 26.43256 | 38053 ft | 414 kts | 301° |
| 2026-05-07 15:00 | 42.92364 | 26.36718 | 38046 ft | 414 kts | 301° |
| 2026-05-07 15:01 | 42.95497 | 26.30113 | 38043 ft | 414 kts | 301° |
| 2026-05-07 15:01 | 42.98621 | 26.23509 | 38041 ft | 414 kts | 301° |
| 2026-05-07 15:02 | 43.01744 | 26.16893 | 38042 ft | 415 kts | 301° |
| 2026-05-07 15:02 | 43.04869 | 26.10259 | 38031 ft | 415 kts | 301° |
| 2026-05-07 15:03 | 43.07988 | 26.03622 | 38017 ft | 415 kts | 301° |
| 2026-05-07 15:03 | 43.11085 | 25.97018 | 38019 ft | 416 kts | 301° |
| 2026-05-07 15:04 | 43.14208 | 25.90342 | 38016 ft | 416 kts | 301° |
| 2026-05-07 15:04 | 43.17329 | 25.83657 | 38022 ft | 417 kts | 301° |
| 2026-05-07 15:05 | 43.20451 | 25.76953 | 38019 ft | 417 kts | 301° |
| 2026-05-07 15:05 | 43.23570 | 25.70242 | 38022 ft | 417 kts | 301° |
| 2026-05-07 15:06 | 43.26688 | 25.63517 | 38023 ft | 418 kts | 301° |
| 2026-05-07 15:06 | 43.29807 | 25.56775 | 38024 ft | 418 kts | 300° |
| 2026-05-07 15:07 | 43.32928 | 25.50014 | 38026 ft | 419 kts | 300° |
| 2026-05-07 15:07 | 43.36023 | 25.43292 | 38024 ft | 419 kts | 300° |
| 2026-05-07 15:08 | 43.39137 | 25.36514 | 38023 ft | 419 kts | 300° |
| 2026-05-07 15:08 | 43.42249 | 25.29726 | 38026 ft | 419 kts | 300° |
| 2026-05-07 15:09 | 43.45359 | 25.22924 | 38024 ft | 420 kts | 300° |
| 2026-05-07 15:09 | 43.48468 | 25.16110 | 38026 ft | 420 kts | 300° |
| 2026-05-07 15:10 | 43.51573 | 25.09287 | 38021 ft | 420 kts | 300° |
| 2026-05-07 15:10 | 43.54625 | 25.02567 | 38025 ft | 421 kts | 300° |
| 2026-05-07 15:11 | 43.57730 | 24.95713 | 38024 ft | 421 kts | 300° |
| 2026-05-07 15:11 | 43.60814 | 24.88889 | 38030 ft | 422 kts | 300° |
| 2026-05-07 15:12 | 43.63918 | 24.82005 | 38034 ft | 422 kts | 300° |
| 2026-05-07 15:12 | 43.67022 | 24.75104 | 38031 ft | 423 kts | 299° |
| 2026-05-07 15:13 | 43.70126 | 24.68190 | 38034 ft | 423 kts | 299° |
| 2026-05-07 15:13 | 43.73226 | 24.61267 | 38035 ft | 424 kts | 299° |
| 2026-05-07 15:14 | 43.76472 | 24.54451 | 38035 ft | 426 kts | 306° |
| 2026-05-07 15:14 | 43.79584 | 24.49153 | 38040 ft | 427 kts | 306° |
| 2026-05-07 15:15 | 43.83928 | 24.41731 | 38038 ft | 427 kts | 306° |
| 2026-05-07 15:15 | 43.87669 | 24.35327 | 38042 ft | 427 kts | 306° |
| 2026-05-07 15:16 | 43.90803 | 24.29952 | 38050 ft | 428 kts | 306° |
| 2026-05-07 15:16 | 43.94535 | 24.23532 | 38048 ft | 428 kts | 306° |
| 2026-05-07 15:17 | 43.98239 | 24.17147 | 38050 ft | 427 kts | 306° |
| 2026-05-07 15:17 | 44.01964 | 24.10712 | 38048 ft | 427 kts | 306° |
| 2026-05-07 15:18 | 44.05685 | 24.04269 | 38048 ft | 427 kts | 306° |
| 2026-05-07 15:18 | 44.09399 | 23.97823 | 38047 ft | 427 kts | 305° |
| 2026-05-07 15:19 | 44.13116 | 23.91357 | 38049 ft | 427 kts | 305° |
| 2026-05-07 15:19 | 44.16826 | 23.84890 | 38048 ft | 427 kts | 305° |
| 2026-05-07 15:20 | 44.20503 | 23.78465 | 38046 ft | 427 kts | 305° |
| 2026-05-07 15:20 | 44.24199 | 23.71992 | 38039 ft | 426 kts | 305° |
| 2026-05-07 15:21 | 44.27891 | 23.65511 | 38037 ft | 426 kts | 305° |
| 2026-05-07 15:21 | 44.31581 | 23.59020 | 38037 ft | 427 kts | 305° |
| 2026-05-07 15:22 | 44.35274 | 23.52509 | 38036 ft | 428 kts | 304° |
| 2026-05-07 15:22 | 44.38968 | 23.45980 | 38042 ft | 429 kts | 304° |
| 2026-05-07 15:23 | 44.42665 | 23.39435 | 38043 ft | 429 kts | 304° |
| 2026-05-07 15:23 | 44.46364 | 23.32878 | 38041 ft | 429 kts | 304° |
| 2026-05-07 15:24 | 44.50054 | 23.26311 | 38039 ft | 429 kts | 304° |
| 2026-05-07 15:24 | 44.53742 | 23.19731 | 38041 ft | 429 kts | 304° |
| 2026-05-07 15:25 | 44.57426 | 23.13146 | 38039 ft | 429 kts | 304° |
| 2026-05-07 15:25 | 44.61113 | 23.06542 | 38042 ft | 430 kts | 304° |
| 2026-05-07 15:26 | 44.64794 | 22.99931 | 38048 ft | 430 kts | 304° |
| 2026-05-07 15:26 | 44.68464 | 22.93326 | 38050 ft | 430 kts | 304° |
| 2026-05-07 15:27 | 44.72136 | 22.86702 | 38053 ft | 430 kts | 304° |
| 2026-05-07 15:27 | 44.75805 | 22.80066 | 38052 ft | 430 kts | 304° |
| 2026-05-07 15:28 | 44.79450 | 22.73461 | 38061 ft | 430 kts | 304° |
| 2026-05-07 15:28 | 44.83120 | 22.66794 | 38064 ft | 430 kts | 304° |
| 2026-05-07 15:29 | 44.86784 | 22.60123 | 38054 ft | 430 kts | 304° |
| 2026-05-07 15:29 | 44.90449 | 22.53431 | 38053 ft | 430 kts | 303° |
| 2026-05-07 15:30 | 44.94104 | 22.46743 | 38064 ft | 430 kts | 303° |
| 2026-05-07 15:30 | 44.97762 | 22.40034 | 38058 ft | 431 kts | 303° |
| 2026-05-07 15:31 | 45.01410 | 22.33330 | 38057 ft | 430 kts | 303° |
| 2026-05-07 15:31 | 45.05056 | 22.26614 | 38050 ft | 430 kts | 303° |
| 2026-05-07 15:32 | 45.08695 | 22.19895 | 38052 ft | 430 kts | 303° |
| 2026-05-07 15:32 | 45.12333 | 22.13161 | 38049 ft | 431 kts | 303° |
| 2026-05-07 15:33 | 45.15952 | 22.06445 | 38051 ft | 432 kts | 303° |
| 2026-05-07 15:33 | 45.19601 | 21.99659 | 38038 ft | 432 kts | 303° |
| 2026-05-07 15:34 | 45.23230 | 21.92897 | 38038 ft | 430 kts | 303° |
| 2026-05-07 15:34 | 45.26854 | 21.86124 | 38032 ft | 431 kts | 303° |
| 2026-05-07 15:35 | 45.30474 | 21.79343 | 38026 ft | 431 kts | 303° |
| 2026-05-07 15:35 | 45.34091 | 21.72552 | 38027 ft | 431 kts | 303° |
| 2026-05-07 15:36 | 45.37712 | 21.65738 | 38026 ft | 432 kts | 303° |
| 2026-05-07 15:36 | 45.41324 | 21.58924 | 38014 ft | 431 kts | 302° |
| 2026-05-07 15:37 | 45.44928 | 21.52110 | 38007 ft | 431 kts | 302° |
| 2026-05-07 15:37 | 45.48528 | 21.45285 | 38007 ft | 431 kts | 302° |
| 2026-05-07 15:38 | 45.52122 | 21.38454 | 38005 ft | 431 kts | 302° |
| 2026-05-07 15:38 | 45.55716 | 21.31609 | 38006 ft | 431 kts | 302° |
| 2026-05-07 15:39 | 45.59287 | 21.24794 | 38002 ft | 431 kts | 302° |
| 2026-05-07 15:39 | 45.62880 | 21.17928 | 38012 ft | 431 kts | 302° |
| 2026-05-07 15:40 | 45.66531 | 21.11116 | 38015 ft | 433 kts | 305° |
| 2026-05-07 15:40 | 45.70420 | 21.04535 | 38018 ft | 434 kts | 306° |
| 2026-05-07 15:41 | 45.74309 | 20.97918 | 38018 ft | 434 kts | 305° |
| 2026-05-07 15:41 | 45.78171 | 20.91265 | 38018 ft | 434 kts | 305° |
| 2026-05-07 15:42 | 45.82021 | 20.84598 | 38018 ft | 434 kts | 304° |
| 2026-05-07 15:42 | 45.85839 | 20.77972 | 38018 ft | 434 kts | 304° |
| 2026-05-07 15:43 | 45.89678 | 20.71294 | 38016 ft | 433 kts | 304° |
| 2026-05-07 15:43 | 45.93518 | 20.64598 | 38016 ft | 433 kts | 304° |
| 2026-05-07 15:44 | 45.96955 | 20.58593 | 38023 ft | 433 kts | 304° |
| 2026-05-07 15:44 | 46.00772 | 20.51906 | 38019 ft | 433 kts | 304° |
| 2026-05-07 15:45 | 46.04588 | 20.45206 | 38014 ft | 432 kts | 304° |
| 2026-05-07 15:45 | 46.08368 | 20.38554 | 38011 ft | 433 kts | 304° |
| 2026-05-07 15:46 | 46.12249 | 20.31695 | 38014 ft | 449 kts | 304° |
| 2026-05-07 15:46 | 46.14239 | 20.28175 | 38011 ft | 455 kts | 304° |
| 2026-05-07 15:47 | 46.18273 | 20.21034 | 38013 ft | 462 kts | 304° |
| 2026-05-07 15:47 | 46.22359 | 20.13785 | 38010 ft | 466 kts | 304° |
| 2026-05-07 15:48 | 46.26461 | 20.06486 | 38004 ft | 463 kts | 304° |
| 2026-05-07 15:48 | 46.28361 | 20.03112 | 38014 ft | 442 kts | 304° |
| 2026-05-07 15:48 | 46.30314 | 19.99636 | 38016 ft | 427 kts | 304° |
| 2026-05-07 15:49 | 46.34019 | 19.92990 | 38018 ft | 433 kts | 304° |
| 2026-05-07 15:49 | 46.37845 | 19.86119 | 38016 ft | 432 kts | 304° |
| 2026-05-07 15:50 | 46.41276 | 19.79018 | 38014 ft | 426 kts | 295° |
| 2026-05-07 15:50 | 46.44269 | 19.71641 | 38019 ft | 427 kts | 296° |
| 2026-05-07 15:51 | 46.47326 | 19.64183 | 38016 ft | 427 kts | 296° |
| 2026-05-07 15:51 | 46.50330 | 19.56805 | 38017 ft | 427 kts | 296° |
| 2026-05-07 15:52 | 46.53346 | 19.49366 | 38016 ft | 427 kts | 295° |
| 2026-05-07 15:52 | 46.56362 | 19.41901 | 38022 ft | 429 kts | 295° |
| 2026-05-07 15:53 | 46.59363 | 19.34458 | 38016 ft | 428 kts | 295° |
| 2026-05-07 15:53 | 46.62358 | 19.27009 | 38018 ft | 427 kts | 295° |
| 2026-05-07 15:54 | 46.65353 | 19.19537 | 38011 ft | 427 kts | 295° |
| 2026-05-07 15:54 | 46.68316 | 19.12127 | 38008 ft | 427 kts | 295° |
| 2026-05-07 15:55 | 46.71302 | 19.04637 | 38004 ft | 427 kts | 295° |
| 2026-05-07 15:55 | 46.74283 | 18.97141 | 38000 ft | 428 kts | 295° |
| 2026-05-07 15:56 | 46.77264 | 18.89624 | 37997 ft | 428 kts | 295° |
| 2026-05-07 15:56 | 46.80237 | 18.82107 | 38000 ft | 428 kts | 295° |
| 2026-05-07 15:57 | 46.83187 | 18.74625 | 37994 ft | 428 kts | 295° |
| 2026-05-07 15:57 | 46.86153 | 18.67084 | 37992 ft | 428 kts | 295° |
| 2026-05-07 15:58 | 46.89119 | 18.59522 | 37989 ft | 428 kts | 295° |
| 2026-05-07 15:58 | 46.92078 | 18.51956 | 37994 ft | 428 kts | 294° |
| 2026-05-07 15:59 | 46.95029 | 18.44390 | 37984 ft | 428 kts | 294° |
| 2026-05-07 15:59 | 46.97977 | 18.36809 | 37988 ft | 428 kts | 294° |
| 2026-05-07 16:00 | 47.00901 | 18.29269 | 37990 ft | 428 kts | 294° |
| 2026-05-07 16:00 | 47.03843 | 18.21664 | 37984 ft | 428 kts | 294° |
| 2026-05-07 16:01 | 47.06756 | 18.14064 | 37989 ft | 427 kts | 293° |
| 2026-05-07 16:01 | 47.09579 | 18.06383 | 37982 ft | 427 kts | 293° |
| 2026-05-07 16:02 | 47.12393 | 17.98704 | 37976 ft | 427 kts | 293° |
| 2026-05-07 16:02 | 47.15197 | 17.91065 | 37975 ft | 427 kts | 293° |
| 2026-05-07 16:03 | 47.18019 | 17.83361 | 37971 ft | 428 kts | 293° |
| 2026-05-07 16:03 | 47.20361 | 17.76954 | 37968 ft | 428 kts | 293° |
| 2026-05-07 16:04 | 47.23170 | 17.69245 | 37963 ft | 428 kts | 292° |
| 2026-05-07 16:04 | 47.25987 | 17.61493 | 37960 ft | 428 kts | 292° |
| 2026-05-07 16:05 | 47.28792 | 17.53749 | 37958 ft | 429 kts | 292° |
| 2026-05-07 16:05 | 47.31595 | 17.45989 | 37957 ft | 429 kts | 292° |
| 2026-05-07 16:06 | 47.34404 | 17.38192 | 37952 ft | 430 kts | 292° |
| 2026-05-07 16:06 | 47.37208 | 17.30382 | 37956 ft | 431 kts | 292° |
| 2026-05-07 16:07 | 47.39996 | 17.22595 | 37954 ft | 432 kts | 292° |
| 2026-05-07 16:07 | 47.42805 | 17.14729 | 37958 ft | 433 kts | 292° |
| 2026-05-07 16:08 | 47.45610 | 17.06847 | 37955 ft | 433 kts | 292° |
| 2026-05-07 16:08 | 47.48404 | 16.98974 | 37949 ft | 434 kts | 292° |
| 2026-05-07 16:09 | 47.51222 | 16.91011 | 37956 ft | 434 kts | 292° |
| 2026-05-07 16:09 | 47.53998 | 16.83142 | 37959 ft | 435 kts | 292° |
| 2026-05-07 16:10 | 47.56809 | 16.75198 | 37956 ft | 436 kts | 294° |
| 2026-05-07 16:10 | 47.59975 | 16.67509 | 37959 ft | 437 kts | 296° |
| 2026-05-07 16:11 | 47.63161 | 16.59828 | 37966 ft | 437 kts | 296° |
| 2026-05-07 16:11 | 47.66318 | 16.52188 | 37967 ft | 436 kts | 296° |
| 2026-05-07 16:12 | 47.69482 | 16.44496 | 37970 ft | 436 kts | 296° |
| 2026-05-07 16:12 | 47.72632 | 16.36811 | 37972 ft | 435 kts | 296° |
| 2026-05-07 16:13 | 47.75776 | 16.29123 | 37979 ft | 435 kts | 296° |
| 2026-05-07 16:13 | 47.78912 | 16.21430 | 37981 ft | 434 kts | 296° |
| 2026-05-07 16:14 | 47.82033 | 16.13754 | 37979 ft | 434 kts | 296° |
| 2026-05-07 16:14 | 47.85151 | 16.06064 | 37981 ft | 434 kts | 296° |
| 2026-05-07 16:15 | 47.88264 | 15.98363 | 37987 ft | 434 kts | 296° |
| 2026-05-07 16:15 | 47.91373 | 15.90650 | 37981 ft | 434 kts | 296° |
| 2026-05-07 16:16 | 47.94461 | 15.82969 | 37974 ft | 433 kts | 296° |
| 2026-05-07 16:16 | 47.97552 | 15.75256 | 37971 ft | 433 kts | 296° |
| 2026-05-07 16:17 | 48.00647 | 15.67512 | 37973 ft | 434 kts | 296° |
| 2026-05-07 16:17 | 48.03738 | 15.59754 | 37970 ft | 434 kts | 296° |
| 2026-05-07 16:18 | 48.06800 | 15.52048 | 37976 ft | 434 kts | 296° |
| 2026-05-07 16:18 | 48.09883 | 15.44268 | 37978 ft | 434 kts | 296° |
| 2026-05-07 16:19 | 48.12962 | 15.36475 | 37979 ft | 435 kts | 296° |
| 2026-05-07 16:19 | 48.16035 | 15.28673 | 37981 ft | 435 kts | 296° |
| 2026-05-07 16:20 | 48.19104 | 15.20859 | 37981 ft | 435 kts | 296° |
| 2026-05-07 16:20 | 48.22166 | 15.13041 | 37977 ft | 435 kts | 296° |
| 2026-05-07 16:21 | 48.25227 | 15.05203 | 37976 ft | 435 kts | 296° |
| 2026-05-07 16:21 | 48.28282 | 14.97355 | 37981 ft | 435 kts | 295° |
| 2026-05-07 16:22 | 48.31331 | 14.89500 | 37979 ft | 435 kts | 295° |
| 2026-05-07 16:22 | 48.34375 | 14.81635 | 37979 ft | 436 kts | 295° |
| 2026-05-07 16:23 | 48.37400 | 14.73798 | 37981 ft | 436 kts | 295° |
| 2026-05-07 16:23 | 48.40439 | 14.65900 | 37988 ft | 436 kts | 295° |
| 2026-05-07 16:24 | 48.43476 | 14.57982 | 37988 ft | 436 kts | 295° |
| 2026-05-07 16:24 | 48.46507 | 14.50059 | 37998 ft | 436 kts | 295° |
| 2026-05-07 16:25 | 48.49534 | 14.42122 | 37995 ft | 436 kts | 295° |
| 2026-05-07 16:25 | 48.52554 | 14.34179 | 37996 ft | 436 kts | 295° |
| 2026-05-07 16:26 | 48.55550 | 14.26274 | 37994 ft | 436 kts | 295° |
| 2026-05-07 16:26 | 48.58561 | 14.18306 | 37992 ft | 437 kts | 295° |
| 2026-05-07 16:27 | 48.61570 | 14.10320 | 37993 ft | 437 kts | 295° |
| 2026-05-07 16:27 | 48.64577 | 14.02315 | 37992 ft | 437 kts | 295° |
| 2026-05-07 16:28 | 48.67583 | 13.94290 | 37999 ft | 438 kts | 295° |
| 2026-05-07 16:28 | 48.70580 | 13.86262 | 37989 ft | 438 kts | 295° |
| 2026-05-07 16:29 | 48.73570 | 13.78232 | 37996 ft | 438 kts | 295° |
| 2026-05-07 16:29 | 48.76548 | 13.70225 | 38001 ft | 438 kts | 295° |
| 2026-05-07 16:30 | 48.79613 | 13.62225 | 38000 ft | 439 kts | 296° |
| 2026-05-07 16:30 | 48.82711 | 13.54240 | 37996 ft | 439 kts | 296° |
| 2026-05-07 16:31 | 48.85757 | 13.46334 | 38001 ft | 439 kts | 296° |
| 2026-05-07 16:31 | 48.88834 | 13.38304 | 38009 ft | 440 kts | 296° |
| 2026-05-07 16:32 | 48.91904 | 13.30261 | 38012 ft | 440 kts | 296° |
| 2026-05-07 16:32 | 48.94969 | 13.22209 | 38017 ft | 440 kts | 296° |
| 2026-05-07 16:33 | 48.98036 | 13.14130 | 38018 ft | 441 kts | 296° |
| 2026-05-07 16:33 | 49.01097 | 13.06040 | 38019 ft | 441 kts | 296° |
| 2026-05-07 16:34 | 49.04154 | 12.97937 | 38019 ft | 441 kts | 296° |
| 2026-05-07 16:34 | 49.07184 | 12.89878 | 38025 ft | 441 kts | 296° |
| 2026-05-07 16:35 | 49.10229 | 12.81754 | 38027 ft | 441 kts | 296° |
| 2026-05-07 16:35 | 49.13272 | 12.73612 | 38030 ft | 442 kts | 296° |
| 2026-05-07 16:36 | 49.16313 | 12.65448 | 38032 ft | 442 kts | 296° |
| 2026-05-07 16:36 | 49.19349 | 12.57274 | 38033 ft | 442 kts | 296° |
| 2026-05-07 16:37 | 49.22384 | 12.49074 | 38031 ft | 442 kts | 296° |
| 2026-05-07 16:37 | 49.25409 | 12.40878 | 38036 ft | 443 kts | 296° |
| 2026-05-07 16:38 | 49.28429 | 12.32671 | 38034 ft | 443 kts | 295° |
| 2026-05-07 16:38 | 49.31444 | 12.24451 | 38033 ft | 442 kts | 295° |
| 2026-05-07 16:39 | 49.34416 | 12.16323 | 38038 ft | 442 kts | 295° |
| 2026-05-07 16:39 | 49.37464 | 12.07961 | 38040 ft | 442 kts | 295° |
| 2026-05-07 16:40 | 49.40438 | 11.99774 | 38038 ft | 442 kts | 295° |
| 2026-05-07 16:40 | 49.43407 | 11.91576 | 38043 ft | 442 kts | 295° |
| 2026-05-07 16:41 | 49.46389 | 11.83318 | 38038 ft | 442 kts | 295° |
| 2026-05-07 16:41 | 49.49363 | 11.75053 | 38020 ft | 441 kts | 295° |
| 2026-05-07 16:42 | 49.52330 | 11.66783 | 38019 ft | 441 kts | 295° |
| 2026-05-07 16:42 | 49.55284 | 11.58522 | 38024 ft | 441 kts | 295° |
| 2026-05-07 16:43 | 49.58211 | 11.50209 | 38040 ft | 440 kts | 293° |
| 2026-05-07 16:43 | 49.61009 | 11.41811 | 38039 ft | 440 kts | 293° |
| 2026-05-07 16:44 | 49.63812 | 11.33405 | 38037 ft | 441 kts | 293° |
| 2026-05-07 16:44 | 49.66602 | 11.25052 | 38039 ft | 441 kts | 293° |
| 2026-05-07 16:45 | 49.69410 | 11.16629 | 38041 ft | 442 kts | 293° |
| 2026-05-07 16:45 | 49.72217 | 11.08180 | 38050 ft | 442 kts | 293° |
| 2026-05-07 16:46 | 49.75022 | 10.99708 | 38048 ft | 442 kts | 293° |
| 2026-05-07 16:46 | 49.77819 | 10.91232 | 38048 ft | 442 kts | 293° |
| 2026-05-07 16:47 | 49.80609 | 10.82748 | 38048 ft | 442 kts | 293° |
| 2026-05-07 16:47 | 49.83395 | 10.74248 | 38046 ft | 442 kts | 293° |
| 2026-05-07 16:48 | 49.86174 | 10.65740 | 38052 ft | 442 kts | 293° |
| 2026-05-07 16:48 | 49.88480 | 10.58659 | 38045 ft | 442 kts | 293° |
| 2026-05-07 16:49 | 49.91244 | 10.50144 | 38051 ft | 443 kts | 293° |
| 2026-05-07 16:49 | 49.94455 | 10.40215 | 38052 ft | 443 kts | 293° |
| 2026-05-07 16:50 | 49.96764 | 10.33052 | 38048 ft | 443 kts | 293° |
| 2026-05-07 16:50 | 49.99498 | 10.24543 | 38046 ft | 442 kts | 293° |
| 2026-05-07 16:51 | 50.02187 | 10.16148 | 38045 ft | 442 kts | 292° |
| 2026-05-07 16:51 | 50.04924 | 10.07570 | 38043 ft | 442 kts | 292° |
| 2026-05-07 16:52 | 50.07653 | 9.98988 | 38042 ft | 442 kts | 292° |